Time;durP1;ratioP1;P1;durP2;ratioP2;P2;SDS_P1;SDS_P2;PMS_P1;PMS_P2;Temp;Humidity;BMP_temperature;BMP_pressure;BME280_temperature;BME280_humidity;BME280_pressure;Samples;Min_cycle;Max_cycle;Signal;HPM_P1;HPM_P2
2022/03/25 00:00:28;;;;;;;34.60;17.77;;;8.90;99.90;;;;;;5051118;28;20839;-71
2022/03/25 00:02:55;;;;;;;36.23;16.47;;;9.00;99.90;;;;;;5056560;28;20440;-71
2022/03/25 00:05:22;;;;;;;28.53;15.33;;;8.90;99.90;;;;;;5047747;28;20436;-71
2022/03/25 00:07:49;;;;;;;29.50;17.30;;;9.00;99.90;;;;;;5058188;28;20503;-70
2022/03/25 00:10:15;;;;;;;32.50;17.80;;;9.00;99.90;;;;;;5052730;28;21094;-71
2022/03/25 00:12:42;;;;;;;37.23;17.90;;;8.90;99.90;;;;;;5052110;28;20476;-70
2022/03/25 00:15:09;;;;;;;39.47;15.30;;;8.80;99.90;;;;;;5055014;28;20478;-71
2022/03/25 00:17:37;;;;;;;30.63;17.17;;;8.80;99.90;;;;;;5053599;28;20446;-70
2022/03/25 00:20:05;;;;;;;38.70;16.93;;;8.70;99.90;;;;;;5050919;28;21024;-70
2022/03/25 00:22:32;;;;;;;39.40;16.60;;;8.60;99.90;;;;;;5050549;28;20975;-70
2022/03/25 00:24:58;;;;;;;31.10;15.07;;;8.50;99.90;;;;;;5053278;28;20417;-70
2022/03/25 00:27:25;;;;;;;33.37;17.77;;;8.50;99.90;;;;;;5053737;28;20484;-69
2022/03/25 00:29:52;;;;;;;30.50;16.63;;;8.60;99.90;;;;;;5056406;28;20594;-70
2022/03/25 00:32:20;;;;;;;35.03;15.10;;;8.70;99.90;;;;;;5057976;28;20451;-70
2022/03/25 00:34:48;;;;;;;51.47;19.40;;;8.60;99.90;;;;;;5059279;28;20424;-70
2022/03/25 00:37:15;;;;;;;37.07;19.47;;;8.50;99.90;;;;;;5058014;28;20437;-70
2022/03/25 00:39:41;;;;;;;36.07;17.90;;;8.50;99.90;;;;;;5045695;28;20434;-69
2022/03/25 00:42:09;;;;;;;29.40;17.37;;;8.50;99.90;;;;;;5045251;28;20959;-70
2022/03/25 00:44:36;;;;;;;29.30;16.17;;;8.50;99.90;;;;;;5040642;28;20437;-70
2022/03/25 00:47:03;;;;;;;29.93;16.77;;;8.40;99.90;;;;;;5052278;28;20496;-70
2022/03/25 00:49:30;;;;;;;28.17;14.67;;;8.20;99.90;;;;;;5046287;28;20545;-70
2022/03/25 00:51:59;;;;;;;30.10;14.23;;;8.20;99.90;;;;;;5045492;28;20494;-70
2022/03/25 00:54:27;;;;;;;28.80;14.77;;;8.10;99.90;;;;;;5048755;28;20437;-70
2022/03/25 00:56:54;;;;;;;26.60;13.97;;;8.10;99.90;;;;;;5044530;28;20794;-70
2022/03/25 00:59:21;;;;;;;31.40;16.10;;;8.10;99.90;;;;;;5046765;28;20470;-70
2022/03/25 01:01:48;;;;;;;20.93;12.33;;;8.20;99.90;;;;;;5043343;28;20903;-70
2022/03/25 01:04:16;;;;;;;25.97;15.77;;;8.10;99.90;;;;;;5040911;28;20775;-69
2022/03/25 01:06:43;;;;;;;26.13;14.47;;;8.10;99.90;;;;;;5050726;28;20563;-70
2022/03/25 01:09:11;;;;;;;27.80;13.40;;;8.10;99.90;;;;;;5049182;28;20449;-70
2022/03/25 01:11:39;;;;;;;28.40;14.23;;;8.10;99.90;;;;;;5046127;28;20462;-70
2022/03/25 01:14:07;;;;;;;28.87;15.40;;;8.10;99.90;;;;;;5040944;28;20977;-70
2022/03/25 01:16:34;;;;;;;22.57;14.83;;;8.00;99.90;;;;;;5046653;28;20536;-71
2022/03/25 01:19:01;;;;;;;28.97;14.77;;;7.90;99.90;;;;;;5044261;28;20498;-70
2022/03/25 01:21:28;;;;;;;32.50;17.27;;;7.90;99.90;;;;;;5046260;28;21011;-71
2022/03/25 01:23:56;;;;;;;34.67;16.23;;;7.80;99.90;;;;;;5047569;28;20529;-70
2022/03/25 01:26:24;;;;;;;30.03;12.37;;;7.80;99.90;;;;;;5044630;28;20463;-70
2022/03/25 01:28:52;;;;;;;30.73;15.80;;;7.70;99.90;;;;;;5050705;28;20442;-72
2022/03/25 01:31:19;;;;;;;21.20;12.53;;;7.80;99.90;;;;;;5052053;28;20585;-70
2022/03/25 01:33:46;;;;;;;31.63;13.67;;;7.70;99.90;;;;;;5048930;28;20459;-70
2022/03/25 01:36:12;;;;;;;33.27;14.70;;;7.70;99.90;;;;;;5046775;28;20472;-70
2022/03/25 01:38:39;;;;;;;24.10;14.17;;;7.80;99.90;;;;;;5054269;28;20479;-71
2022/03/25 01:41:07;;;;;;;22.80;13.50;;;7.80;99.90;;;;;;5047663;28;20449;-71
2022/03/25 01:43:36;;;;;;;23.93;13.23;;;7.70;99.90;;;;;;5040604;28;20441;-70
2022/03/25 01:46:02;;;;;;;26.43;13.47;;;7.70;99.90;;;;;;5043456;28;25737;-70
2022/03/25 01:48:30;;;;;;;31.23;15.63;;;7.60;99.90;;;;;;5043879;28;20453;-70
2022/03/25 01:50:57;;;;;;;30.20;14.10;;;7.80;99.90;;;;;;5046556;28;20859;-70
2022/03/25 01:53:26;;;;;;;31.17;12.90;;;7.70;99.90;;;;;;5043739;28;21723;-70
2022/03/25 01:55:56;;;;;;;21.17;13.10;;;7.60;99.90;;;;;;5043442;28;20502;-70
2022/03/25 01:58:23;;;;;;;22.50;11.70;;;7.40;99.90;;;;;;5041278;28;20447;-70
2022/03/25 02:00:52;;;;;;;28.30;16.57;;;7.40;99.90;;;;;;5048065;28;20483;-70
2022/03/25 02:03:19;;;;;;;30.97;14.93;;;7.40;99.90;;;;;;5042140;28;20458;-70
2022/03/25 02:05:47;;;;;;;24.83;15.27;;;7.30;99.90;;;;;;5041564;28;20455;-70
2022/03/25 02:08:15;;;;;;;25.97;14.97;;;7.40;99.90;;;;;;5048926;28;20520;-70
2022/03/25 02:10:43;;;;;;;30.40;13.63;;;7.20;99.90;;;;;;5046193;28;20453;-70
2022/03/25 02:13:10;;;;;;;27.33;14.90;;;7.20;99.90;;;;;;5051273;28;20459;-70
2022/03/25 02:15:39;;;;;;;25.93;13.10;;;7.20;99.90;;;;;;5048981;28;20429;-70
2022/03/25 02:18:09;;;;;;;23.77;12.20;;;7.20;99.90;;;;;;5035668;28;20433;-71
2022/03/25 02:20:38;;;;;;;35.50;15.70;;;7.20;99.90;;;;;;5053406;28;20449;-69
2022/03/25 02:23:07;;;;;;;27.10;14.17;;;7.20;99.90;;;;;;5045316;28;20441;-70
2022/03/25 02:25:33;;;;;;;28.67;15.70;;;7.10;99.90;;;;;;5048429;28;20430;-70
2022/03/25 02:28:04;;;;;;;23.50;12.50;;;7.10;99.90;;;;;;5049753;28;20429;-70
2022/03/25 02:30:32;;;;;;;32.50;15.80;;;7.00;99.90;;;;;;5041415;28;20465;-70
2022/03/25 02:33:01;;;;;;;33.80;16.23;;;7.00;99.90;;;;;;5048156;28;20462;-71
2022/03/25 02:35:44;;;;;;;30.17;17.40;;;6.90;99.90;;;;;;5048932;28;20510;-71
2022/03/25 02:38:14;;;;;;;24.67;14.60;;;7.00;99.90;;;;;;5046180;28;21079;-70
2022/03/25 02:40:41;;;;;;;37.13;16.60;;;7.00;99.90;;;;;;5040363;28;20501;-69
2022/03/25 02:43:08;;;;;;;21.83;12.23;;;6.90;99.90;;;;;;5044360;28;20810;-70
2022/03/25 02:45:35;;;;;;;26.80;16.60;;;6.80;99.90;;;;;;5045875;28;20490;-70
2022/03/25 02:48:03;;;;;;;32.47;14.33;;;6.70;99.90;;;;;;5047632;28;20818;-70
2022/03/25 02:50:31;;;;;;;26.83;15.53;;;6.80;99.90;;;;;;5051144;28;20458;-70
2022/03/25 02:52:58;;;;;;;32.30;13.60;;;6.80;99.90;;;;;;5041783;28;20455;-70
2022/03/25 02:55:26;;;;;;;29.57;15.33;;;6.70;99.90;;;;;;5048519;28;20438;-70
2022/03/25 02:57:53;;;;;;;38.03;12.50;;;6.40;99.90;;;;;;5040652;28;20853;-69
2022/03/25 03:00:21;;;;;;;31.33;14.97;;;6.20;99.90;;;;;;5028741;28;20483;-69
2022/03/25 03:02:48;;;;;;;26.33;13.37;;;6.10;99.90;;;;;;5050122;28;20460;-70
2022/03/25 03:05:17;;;;;;;27.33;13.30;;;6.30;99.90;;;;;;5042374;28;20473;-69
2022/03/25 03:07:45;;;;;;;21.80;12.20;;;6.30;99.90;;;;;;5044729;28;20464;-70
2022/03/25 03:10:13;;;;;;;34.20;13.83;;;6.30;99.90;;;;;;5039653;28;20513;-70
2022/03/25 03:12:44;;;;;;;27.13;13.80;;;6.40;99.90;;;;;;5042710;28;20429;-70
2022/03/25 03:15:12;;;;;;;29.20;14.07;;;6.30;99.90;;;;;;5039834;28;21253;-70
2022/03/25 03:17:39;;;;;;;23.63;12.13;;;6.20;99.90;;;;;;5045791;28;20558;-71
2022/03/25 03:20:07;;;;;;;26.17;13.57;;;6.20;99.90;;;;;;5045528;28;20479;-70
2022/03/25 03:22:34;;;;;;;29.00;12.60;;;6.20;99.90;;;;;;5041398;28;20520;-70
2022/03/25 03:25:01;;;;;;;31.53;12.80;;;6.10;99.90;;;;;;5048574;28;20842;-70
2022/03/25 03:27:28;;;;;;;28.87;15.03;;;5.80;99.90;;;;;;5042017;28;20859;-70
2022/03/25 03:29:57;;;;;;;26.53;14.63;;;5.90;99.90;;;;;;5050087;28;20454;-70
2022/03/25 03:32:25;;;;;;;26.53;12.13;;;6.10;99.90;;;;;;5046250;28;20626;-70
2022/03/25 03:34:51;;;;;;;25.53;13.47;;;6.20;99.90;;;;;;5050374;28;20462;-70
2022/03/25 03:37:18;;;;;;;26.60;13.30;;;6.20;99.90;;;;;;5048379;28;20517;-70
2022/03/25 03:39:45;;;;;;;28.43;12.93;;;6.30;99.90;;;;;;5042638;28;20422;-70
2022/03/25 03:42:11;;;;;;;29.47;16.13;;;6.20;99.90;;;;;;5046216;28;20753;-71
2022/03/25 03:44:39;;;;;;;26.33;12.87;;;6.20;99.90;;;;;;5047105;28;20903;-70
2022/03/25 03:47:08;;;;;;;22.63;12.07;;;6.30;99.90;;;;;;5048931;28;20908;-70
2022/03/25 03:49:36;;;;;;;17.57;11.13;;;6.20;99.90;;;;;;5039950;28;20453;-69
2022/03/25 03:52:04;;;;;;;29.93;12.83;;;6.10;99.90;;;;;;5039807;28;20494;-70
2022/03/25 03:54:31;;;;;;;28.90;12.43;;;6.20;99.90;;;;;;5042810;28;20446;-70
2022/03/25 03:56:57;;;;;;;28.50;14.10;;;6.20;99.90;;;;;;5034468;28;20916;-70
2022/03/25 03:59:24;;;;;;;21.87;12.10;;;6.10;99.90;;;;;;5042869;28;20459;-71
2022/03/25 04:01:51;;;;;;;19.93;13.50;;;6.00;99.90;;;;;;5045966;28;20748;-71
2022/03/25 04:04:19;;;;;;;23.33;11.40;;;6.00;99.90;;;;;;5046408;28;20485;-69
2022/03/25 04:06:45;;;;;;;20.97;12.73;;;6.00;99.90;;;;;;5037546;28;20478;-69
2022/03/25 04:09:12;;;;;;;36.30;15.87;;;6.10;99.90;;;;;;5041612;28;20478;-69
2022/03/25 04:11:39;;;;;;;27.87;11.13;;;6.10;99.90;;;;;;5039798;28;21041;-69
2022/03/25 04:14:05;;;;;;;24.23;12.57;;;6.10;99.90;;;;;;5061570;28;20515;-70
2022/03/25 04:16:32;;;;;;;26.20;11.80;;;6.10;99.90;;;;;;5056625;28;20430;-70
2022/03/25 04:18:59;;;;;;;26.77;14.10;;;6.10;99.90;;;;;;5051955;28;20876;-70
2022/03/25 04:21:27;;;;;;;27.80;13.20;;;6.10;99.90;;;;;;5056225;28;20494;-70
2022/03/25 04:23:54;;;;;;;31.87;13.97;;;6.00;99.90;;;;;;5050774;28;20466;-70
2022/03/25 04:26:20;;;;;;;28.00;13.53;;;6.10;99.90;;;;;;5049966;28;20832;-69
2022/03/25 04:28:47;;;;;;;31.40;13.17;;;6.20;99.90;;;;;;5047459;28;20452;-70
2022/03/25 04:31:14;;;;;;;19.77;12.27;;;6.10;99.90;;;;;;5046779;28;20460;-69
2022/03/25 04:33:41;;;;;;;28.40;13.23;;;6.10;99.90;;;;;;5051626;28;20455;-70
2022/03/25 04:36:09;;;;;;;25.83;15.77;;;6.10;99.90;;;;;;5051520;28;20533;-70
2022/03/25 04:38:37;;;;;;;35.17;15.37;;;5.80;99.90;;;;;;5045438;28;21040;-70
2022/03/25 04:41:03;;;;;;;32.83;14.20;;;5.80;99.90;;;;;;5044747;28;20482;-70
2022/03/25 04:43:30;;;;;;;26.20;15.70;;;5.90;99.90;;;;;;5046332;28;20430;-70
2022/03/25 04:45:57;;;;;;;29.10;14.00;;;5.90;99.90;;;;;;5053568;28;20433;-70
2022/03/25 04:48:24;;;;;;;23.30;13.10;;;5.90;99.90;;;;;;5042366;28;21081;-69
2022/03/25 04:50:51;;;;;;;27.03;13.43;;;5.90;99.90;;;;;;5051371;28;20457;-69
2022/03/25 04:53:17;;;;;;;31.00;13.97;;;5.80;99.90;;;;;;5050619;28;20464;-69
2022/03/25 04:55:45;;;;;;;30.33;15.33;;;5.90;99.90;;;;;;5042887;28;20413;-69
2022/03/25 04:58:12;;;;;;;28.13;12.53;;;5.90;99.90;;;;;;5037421;28;20857;-69
2022/03/25 05:00:39;;;;;;;27.07;15.23;;;5.90;99.90;;;;;;5039489;28;20820;-70
2022/03/25 05:03:06;;;;;;;37.20;13.80;;;5.90;99.90;;;;;;5032969;28;20447;-70
2022/03/25 05:05:34;;;;;;;30.33;15.83;;;6.00;99.90;;;;;;5043418;28;20441;-69
2022/03/25 05:08:01;;;;;;;20.20;12.67;;;5.90;99.90;;;;;;5052094;28;20430;-70
2022/03/25 05:10:28;;;;;;;30.97;15.80;;;5.90;99.90;;;;;;5046298;28;20482;-69
2022/03/25 05:12:56;;;;;;;28.90;12.40;;;5.70;99.90;;;;;;5051104;28;20443;-70
2022/03/25 05:15:23;;;;;;;19.77;12.90;;;5.50;99.90;;;;;;5052171;28;20498;-69
2022/03/25 05:17:52;;;;;;;19.60;10.77;;;5.50;99.90;;;;;;5049934;28;20462;-69
2022/03/25 05:20:21;;;;;;;29.20;13.20;;;5.00;99.90;;;;;;5056161;28;20521;-69
2022/03/25 05:22:48;;;;;;;22.47;12.03;;;5.10;99.90;;;;;;5048483;28;20966;-69
2022/03/25 05:25:16;;;;;;;29.63;14.43;;;5.10;99.90;;;;;;5054218;28;20436;-70
2022/03/25 05:27:47;;;;;;;24.53;12.17;;;5.30;99.90;;;;;;5043564;28;20426;-70
2022/03/25 05:30:16;;;;;;;32.67;16.87;;;5.40;99.90;;;;;;5046866;28;20479;-70
2022/03/25 05:32:43;;;;;;;28.90;14.53;;;5.40;99.90;;;;;;5047075;28;20918;-70
2022/03/25 05:35:10;;;;;;;28.03;15.87;;;5.20;99.90;;;;;;5054939;28;20516;-70
2022/03/25 05:37:39;;;;;;;22.53;11.93;;;5.20;99.90;;;;;;5040950;28;20537;-70
2022/03/25 05:40:08;;;;;;;28.60;13.37;;;5.30;99.90;;;;;;5046654;28;20528;-70
2022/03/25 05:42:35;;;;;;;24.97;13.27;;;5.30;99.90;;;;;;5044816;28;20895;-70
2022/03/25 05:45:04;;;;;;;21.20;10.80;;;5.20;99.90;;;;;;5051948;28;20447;-70
2022/03/25 05:47:33;;;;;;;22.03;14.60;;;5.20;99.90;;;;;;5046460;28;20955;-70
2022/03/25 05:49:59;;;;;;;30.90;14.90;;;5.40;99.90;;;;;;5049589;28;20495;-71
2022/03/25 05:52:27;;;;;;;39.03;14.30;;;5.40;99.90;;;;;;5049832;28;20470;-70
2022/03/25 05:54:54;;;;;;;23.53;15.17;;;5.50;99.90;;;;;;5043360;28;20484;-70
2022/03/25 05:57:21;;;;;;;27.30;13.83;;;5.60;99.90;;;;;;5047550;28;20494;-70
2022/03/25 05:59:48;;;;;;;28.07;12.80;;;5.80;99.90;;;;;;5048998;28;20483;-69
2022/03/25 06:02:15;;;;;;;35.87;14.70;;;6.00;99.90;;;;;;5049964;28;20462;-69
2022/03/25 06:04:43;;;;;;;21.57;12.10;;;6.20;99.90;;;;;;5059691;28;20443;-69
2022/03/25 06:07:11;;;;;;;34.83;15.23;;;6.50;99.90;;;;;;5058115;28;21241;-69
2022/03/25 06:09:38;;;;;;;39.33;16.57;;;6.40;99.90;;;;;;5052966;28;20973;-69
2022/03/25 06:12:06;;;;;;;31.90;14.47;;;6.10;99.90;;;;;;5052560;28;20445;-69
2022/03/25 06:14:33;;;;;;;39.30;14.90;;;6.40;99.90;;;;;;5047447;28;20429;-69
2022/03/25 06:16:59;;;;;;;62.97;20.90;;;6.50;99.90;;;;;;5051750;28;20454;-69
2022/03/25 06:19:26;;;;;;;38.87;16.83;;;6.80;99.90;;;;;;5048558;28;20953;-69
2022/03/25 06:21:55;;;;;;;34.67;18.47;;;7.00;99.90;;;;;;5052199;28;20445;-70
2022/03/25 06:24:22;;;;;;;43.40;16.30;;;6.80;99.90;;;;;;5047980;28;20476;-69
2022/03/25 06:26:48;;;;;;;38.73;16.83;;;6.90;99.90;;;;;;5045365;28;20464;-69
2022/03/25 06:29:15;;;;;;;37.43;15.90;;;7.00;99.90;;;;;;5053548;28;20475;-69
2022/03/25 06:31:44;;;;;;;41.67;16.50;;;6.70;99.90;;;;;;5046279;28;20457;-70
2022/03/25 06:34:10;;;;;;;35.70;16.13;;;6.60;99.90;;;;;;5050104;28;20523;-70
2022/03/25 06:36:40;;;;;;;28.30;14.43;;;6.90;99.90;;;;;;5048186;28;20953;-70
2022/03/25 06:39:08;;;;;;;30.27;15.17;;;7.10;99.90;;;;;;5055568;28;20478;-71
2022/03/25 06:41:34;;;;;;;30.13;16.90;;;7.10;99.90;;;;;;5049559;28;20505;-70
2022/03/25 06:44:01;;;;;;;29.43;18.17;;;7.00;99.90;;;;;;5045188;28;20452;-70
2022/03/25 06:46:28;;;;;;;34.73;15.03;;;7.10;99.90;;;;;;5047295;28;20612;-71
2022/03/25 06:48:55;;;;;;;30.47;15.30;;;7.40;99.90;;;;;;5056261;28;20425;-70
2022/03/25 06:51:22;;;;;;;28.50;15.40;;;7.80;99.90;;;;;;5052730;28;20495;-71
2022/03/25 06:53:49;;;;;;;23.47;13.53;;;8.10;99.90;;;;;;5050190;28;20483;-71
2022/03/25 06:56:18;;;;;;;36.67;16.13;;;8.00;99.90;;;;;;5040004;28;20469;-70
2022/03/25 06:58:45;;;;;;;40.17;20.70;;;8.60;99.90;;;;;;5052917;28;20433;-70
2022/03/25 07:01:14;;;;;;;34.40;17.33;;;8.70;99.90;;;;;;5041841;28;21004;-71
2022/03/25 07:03:41;;;;;;;47.13;18.97;;;8.70;99.90;;;;;;5047294;28;22165;-71
2022/03/25 07:06:09;;;;;;;40.40;19.67;;;9.00;99.90;;;;;;5052139;28;21551;-70
2022/03/25 07:08:39;;;;;;;42.83;19.53;;;9.70;99.90;;;;;;5052729;28;20466;-70
2022/03/25 07:11:06;;;;;;;34.17;16.57;;;10.50;99.90;;;;;;5048465;28;20565;-70
2022/03/25 07:13:35;;;;;;;38.33;20.23;;;11.00;99.90;;;;;;5044891;28;20465;-70
2022/03/25 07:16:02;;;;;;;35.53;20.27;;;11.60;99.90;;;;;;5047557;28;20547;-70
2022/03/25 07:18:29;;;;;;;30.30;18.03;;;12.20;99.90;;;;;;5038201;28;20447;-71
2022/03/25 07:20:58;;;;;;;30.87;19.20;;;12.50;99.90;;;;;;5053489;28;20475;-71
2022/03/25 07:23:24;;;;;;;50.63;21.27;;;12.20;99.90;;;;;;5051285;28;20952;-71
2022/03/25 07:25:51;;;;;;;40.43;20.33;;;11.90;99.90;;;;;;5047870;28;21117;-71
2022/03/25 07:28:18;;;;;;;36.00;19.80;;;11.80;99.90;;;;;;5050768;28;20882;-70
2022/03/25 07:30:46;;;;;;;41.77;21.13;;;11.70;99.90;;;;;;5054466;28;20539;-72
2022/03/25 07:33:13;;;;;;;32.60;19.23;;;12.00;99.90;;;;;;5044745;28;20512;-71
2022/03/25 07:35:39;;;;;;;35.70;19.50;;;12.30;99.90;;;;;;5045558;28;20470;-70
2022/03/25 07:38:07;;;;;;;31.37;18.50;;;12.30;99.90;;;;;;5043225;28;20463;-70
2022/03/25 07:40:35;;;;;;;41.10;20.13;;;12.50;99.90;;;;;;5048365;28;20469;-69
2022/03/25 07:43:01;;;;;;;43.13;21.57;;;12.50;99.90;;;;;;5060757;28;20570;-69
2022/03/25 07:45:28;;;;;;;39.43;21.17;;;12.80;99.90;;;;;;5063007;28;20443;-70
2022/03/25 07:47:56;;;;;;;31.87;19.30;;;12.90;99.90;;;;;;5053353;28;20455;-70
2022/03/25 07:50:24;;;;;;;27.83;16.57;;;12.90;99.90;;;;;;5051373;28;20910;-70
2022/03/25 07:52:52;;;;;;;34.63;21.87;;;12.90;99.90;;;;;;5044911;28;20495;-69
2022/03/25 07:55:20;;;;;;;34.47;20.13;;;13.10;99.90;;;;;;5048764;28;20470;-71
2022/03/25 07:57:47;;;;;;;34.63;17.83;;;13.90;99.90;;;;;;5053308;28;20473;-70
2022/03/25 08:00:15;;;;;;;49.87;21.77;;;14.40;99.90;;;;;;5048137;28;20458;-71
2022/03/25 08:02:43;;;;;;;41.60;21.37;;;14.70;99.90;;;;;;5049776;28;20943;-72
2022/03/25 08:05:13;;;;;;;43.63;22.80;;;15.10;99.90;;;;;;5052733;28;20832;-70
2022/03/25 08:07:45;;;;;;;43.60;22.57;;;15.30;99.90;;;;;;5053261;28;20453;-70
2022/03/25 08:10:13;;;;;;;34.47;20.20;;;15.20;99.90;;;;;;5046863;28;20488;-71
2022/03/25 08:12:39;;;;;;;34.77;20.07;;;15.50;99.90;;;;;;5053624;28;20959;-71
2022/03/25 08:15:10;;;;;;;45.97;20.63;;;16.10;99.90;;;;;;5046732;28;20470;-71
2022/03/25 08:17:48;;;;;;;32.03;21.40;;;16.70;99.90;;;;;;5051722;28;20559;-70
2022/03/25 08:20:20;;;;;;;45.20;23.63;;;17.10;98.00;;;;;;5054876;28;20489;-71
2022/03/25 08:22:47;;;;;;;39.53;22.57;;;17.90;96.30;;;;;;5050227;28;20460;-71
2022/03/25 08:28:13;;;;;;;47.93;27.90;;;19.40;90.60;;;;;;4996691;28;20433;-69
2022/03/25 08:30:41;;;;;;;37.77;19.93;;;19.70;88.20;;;;;;4993654;28;20485;-70
2022/03/25 08:33:08;;;;;;;34.10;21.17;;;19.60;85.20;;;;;;5017061;28;21044;-69
2022/03/25 08:35:37;;;;;;;38.83;23.40;;;20.00;83.10;;;;;;5052981;28;20444;-69
2022/03/25 08:38:04;;;;;;;48.67;25.87;;;20.70;79.90;;;;;;5047996;28;21110;-69
2022/03/25 08:40:34;;;;;;;38.63;23.83;;;21.10;78.70;;;;;;5046677;28;20559;-71
2022/03/25 08:43:02;;;;;;;46.40;24.73;;;21.70;73.50;;;;;;5051243;28;20455;-71
2022/03/25 08:45:29;;;;;;;38.30;22.30;;;21.80;72.90;;;;;;5054653;28;20788;-71
2022/03/25 08:47:56;;;;;;;36.77;20.90;;;21.30;71.80;;;;;;5048062;28;20464;-70
2022/03/25 08:50:23;;;;;;;43.27;25.13;;;21.50;73.80;;;;;;5053002;28;20485;-69
2022/03/25 08:52:52;;;;;;;50.03;23.23;;;22.10;71.90;;;;;;5049318;28;20465;-69
2022/03/25 08:55:20;;;;;;;49.53;24.20;;;22.50;69.40;;;;;;5053256;28;21325;-70
2022/03/25 08:57:48;;;;;;;32.80;18.93;;;23.10;68.70;;;;;;5040780;28;20463;-69
2022/03/25 09:00:17;;;;;;;43.33;22.60;;;23.20;63.00;;;;;;5053273;28;20907;-69
2022/03/25 09:02:45;;;;;;;30.27;19.63;;;22.90;62.90;;;;;;5045230;28;20960;-70
2022/03/25 09:05:13;;;;;;;33.90;20.50;;;23.50;60.50;;;;;;5054063;28;20462;-70
2022/03/25 09:07:41;;;;;;;35.20;21.23;;;23.50;59.40;;;;;;5045832;28;20497;-70
2022/03/25 09:10:11;;;;;;;31.57;20.40;;;23.90;59.30;;;;;;5053165;28;20489;-70
2022/03/25 09:12:38;;;;;;;34.37;21.37;;;24.40;57.20;;;;;;5048783;28;20474;-71
2022/03/25 09:15:07;;;;;;;31.23;19.57;;;24.20;56.60;;;;;;5050518;28;20462;-70
2022/03/25 09:17:34;;;;;;;37.53;20.07;;;24.20;55.80;;;;;;5050521;28;20800;-70
2022/03/25 09:20:03;;;;;;;31.67;20.30;;;23.40;56.70;;;;;;5046683;28;20444;-70
2022/03/25 09:22:30;;;;;;;32.23;18.30;;;23.50;56.40;;;;;;5054112;28;20912;-70
2022/03/25 09:24:56;;;;;;;29.93;18.50;;;23.90;56.60;;;;;;5051325;28;21016;-70
2022/03/25 09:27:25;;;;;;;41.20;20.90;;;24.00;55.10;;;;;;5049152;28;20550;-69
2022/03/25 09:29:52;;;;;;;36.60;20.00;;;23.80;55.70;;;;;;5050532;28;20516;-70
2022/03/25 09:32:19;;;;;;;25.87;17.23;;;24.60;54.80;;;;;;5045741;28;20479;-69
2022/03/25 09:37:30;;;;;;;31.20;17.37;;;25.20;50.70;;;;;;5052013;28;20965;-70
2022/03/25 09:39:56;;;;;;;35.30;20.40;;;25.50;50.00;;;;;;5052600;28;20998;-69
2022/03/25 09:42:25;;;;;;;31.03;18.90;;;25.60;51.50;;;;;;5058251;28;20439;-69
2022/03/25 09:44:53;;;;;;;35.17;19.23;;;25.70;52.70;;;;;;5054941;28;20448;-69
2022/03/25 09:47:21;;;;;;;33.47;17.90;;;26.00;51.40;;;;;;5050728;28;20451;-70
2022/03/25 09:49:48;;;;;;;30.13;20.40;;;25.50;50.90;;;;;;5053600;28;20446;-69
2022/03/25 09:52:18;;;;;;;31.03;20.97;;;26.20;49.50;;;;;;5045614;28;20499;-70
2022/03/25 09:54:45;;;;;;;31.00;13.60;;;26.30;46.60;;;;;;5045202;28;20443;-70
2022/03/25 09:57:11;;;;;;;32.83;17.30;;;25.10;46.30;;;;;;5046324;28;20993;-70
2022/03/25 09:59:40;;;;;;;28.40;15.97;;;25.10;47.40;;;;;;5048848;28;20475;-69
2022/03/25 10:02:06;;;;;;;30.53;17.70;;;24.70;45.90;;;;;;5055710;28;20966;-69
2022/03/25 10:04:51;;;;;;;24.57;14.40;;;24.00;47.40;;;;;;5045471;28;20462;-69
2022/03/25 10:07:20;;;;;;;28.27;13.37;;;23.60;48.10;;;;;;5055367;28;20459;-69
2022/03/25 10:09:49;;;;;;;25.57;16.50;;;23.70;48.50;;;;;;5044220;28;20948;-69
2022/03/25 10:12:23;;;;;;;19.77;14.70;;;23.50;47.80;;;;;;5047748;28;20729;-69
2022/03/25 10:14:53;;;;;;;27.13;15.87;;;23.80;48.70;;;;;;5043898;28;21229;-69
2022/03/25 10:17:20;;;;;;;24.20;15.60;;;24.90;48.00;;;;;;5042171;28;20558;-70
2022/03/25 10:19:49;;;;;;;29.93;17.23;;;25.40;47.30;;;;;;5057649;28;20473;-70
2022/03/25 10:22:17;;;;;;;26.37;15.80;;;25.60;47.60;;;;;;5052728;28;20460;-70
2022/03/25 10:24:47;;;;;;;24.17;16.03;;;25.90;48.50;;;;;;5044620;28;20960;-70
2022/03/25 10:27:17;;;;;;;29.37;14.07;;;26.00;46.90;;;;;;5042114;28;21806;-70
2022/03/25 10:29:45;;;;;;;26.47;15.57;;;25.70;47.40;;;;;;5041208;28;20462;-69
2022/03/25 10:32:15;;;;;;;28.63;17.03;;;24.80;47.50;;;;;;5046259;28;20487;-69
2022/03/25 10:34:43;;;;;;;29.63;13.60;;;25.00;48.80;;;;;;5037141;28;20478;-69
2022/03/25 10:37:12;;;;;;;28.93;13.87;;;25.40;46.30;;;;;;5051392;28;20827;-69
2022/03/25 10:39:40;;;;;;;28.13;16.57;;;24.50;46.30;;;;;;5041482;28;20831;-71
2022/03/25 10:42:08;;;;;;;20.73;13.60;;;24.50;47.00;;;;;;5051173;28;21021;-69
2022/03/25 10:44:37;;;;;;;30.97;15.63;;;24.60;46.50;;;;;;5042636;28;20528;-70
2022/03/25 10:47:26;;;;;;;24.67;11.37;;;24.40;47.60;;;;;;5046792;28;20465;-70
2022/03/25 10:49:53;;;;;;;21.73;14.17;;;24.80;46.60;;;;;;5042135;28;20454;-70
2022/03/25 10:52:23;;;;;;;20.20;12.90;;;25.30;47.20;;;;;;5039812;28;21086;-70
2022/03/25 10:54:50;;;;;;;19.23;12.10;;;25.60;45.90;;;;;;5046342;28;20559;-70
2022/03/25 10:57:18;;;;;;;23.10;14.10;;;24.80;46.10;;;;;;5039947;28;20521;-70
2022/03/25 10:59:58;;;;;;;24.33;14.10;;;25.60;47.20;;;;;;5048485;28;20470;-69
2022/03/25 11:02:26;;;;;;;11.90;6.57;;;26.00;45.00;;;;;;5051406;28;20469;-69
2022/03/25 11:04:54;;;;;;;22.90;13.47;;;24.40;45.50;;;;;;5054954;28;20515;-70
2022/03/25 11:07:23;;;;;;;22.63;14.23;;;24.80;47.30;;;;;;5045734;28;20904;-70
2022/03/25 11:09:51;;;;;;;21.73;13.27;;;25.40;46.20;;;;;;5045815;28;20474;-70
2022/03/25 11:12:18;;;;;;;19.30;12.33;;;25.80;46.00;;;;;;5051091;28;21028;-70
2022/03/25 11:14:45;;;;;;;20.50;13.30;;;25.80;45.40;;;;;;5052998;28;20553;-69
2022/03/25 11:17:12;;;;;;;28.37;15.70;;;25.80;45.00;;;;;;5051666;28;20555;-70
2022/03/25 11:19:41;;;;;;;23.90;15.03;;;26.10;45.80;;;;;;5048317;28;20579;-70
2022/03/25 11:22:09;;;;;;;22.87;15.13;;;26.10;45.10;;;;;;5053092;28;20551;-68
2022/03/25 11:24:39;;;;;;;25.27;15.10;;;25.50;45.30;;;;;;5052087;28;20519;-69
2022/03/25 11:27:14;;;;;;;14.03;8.77;;;26.30;45.70;;;;;;5057174;28;20467;-69
2022/03/25 11:29:45;;;;;;;19.97;11.83;;;26.30;44.90;;;;;;5060423;28;21040;-69
2022/03/25 11:32:13;;;;;;;25.77;14.47;;;25.10;45.40;;;;;;5055380;28;20597;-69
2022/03/25 11:34:46;;;;;;;25.93;15.40;;;25.50;45.60;;;;;;5052990;28;21357;-69
2022/03/25 11:37:22;;;;;;;26.17;15.80;;;26.70;45.00;;;;;;5054218;28;20458;-70
2022/03/25 11:40:09;;;;;;;17.97;13.13;;;27.30;44.70;;;;;;5043642;28;20464;-70
2022/03/25 11:42:39;;;;;;;23.20;14.17;;;27.30;44.40;;;;;;5056024;28;20955;-70
2022/03/25 11:45:35;;;;;;;27.30;14.17;;;26.90;45.30;;;;;;5049608;28;20462;-71
2022/03/25 11:48:42;;;;;;;28.80;14.40;;;27.30;44.30;;;;;;5048761;28;20466;-69
2022/03/25 11:51:35;;;;;;;13.83;9.70;;;26.40;44.00;;;;;;5048821;28;20585;-70
2022/03/25 11:54:04;;;;;;;10.07;6.20;;;25.30;44.70;;;;;;5056104;28;20505;-70
2022/03/25 11:56:50;;;;;;;19.23;12.67;;;24.70;45.10;;;;;;5055668;28;20452;-69
2022/03/25 11:59:19;;;;;;;11.87;6.97;;;23.20;46.50;;;;;;5050153;28;20476;-69
2022/03/25 12:01:46;;;;;;;16.23;9.83;;;23.10;45.80;;;;;;5051127;28;20517;-70
2022/03/25 12:04:14;;;;;;;15.80;9.30;;;24.00;46.30;;;;;;5048749;28;20459;-70
2022/03/25 12:07:00;;;;;;;21.70;11.17;;;23.60;46.40;;;;;;5052316;28;20449;-70
2022/03/25 12:09:34;;;;;;;21.73;12.13;;;22.70;47.30;;;;;;5054944;28;20558;-70
2022/03/25 12:12:01;;;;;;;26.77;12.57;;;23.50;47.30;;;;;;5050993;28;20540;-70
2022/03/25 12:14:31;;;;;;;21.23;11.77;;;24.10;46.30;;;;;;5057564;28;20508;-70
2022/03/25 12:17:01;;;;;;;21.97;13.07;;;24.90;47.10;;;;;;5056420;28;20451;-70
2022/03/25 12:20:00;;;;;;;19.07;11.70;;;25.30;46.10;;;;;;5054403;28;20448;-70
2022/03/25 12:22:38;;;;;;;18.80;12.50;;;25.00;45.20;;;;;;5055734;28;20459;-70
2022/03/25 12:25:21;;;;;;;18.97;11.47;;;23.70;46.00;;;;;;5051806;28;20494;-69
2022/03/25 12:27:47;;;;;;;20.23;12.60;;;22.80;47.00;;;;;;5046389;28;21987;-69
2022/03/25 12:30:16;;;;;;;18.40;12.30;;;22.20;46.90;;;;;;5050512;28;20587;-69
2022/03/25 12:32:43;;;;;;;16.80;9.13;;;23.40;47.30;;;;;;5054145;28;20951;-70
2022/03/25 12:35:13;;;;;;;23.03;12.43;;;23.90;45.50;;;;;;5056286;28;20937;-70
2022/03/25 12:37:58;;;;;;;23.70;11.83;;;23.50;45.50;;;;;;5048906;28;20617;-70
2022/03/25 12:40:27;;;;;;;22.93;13.60;;;23.70;45.90;;;;;;5048989;28;20470;-70
2022/03/25 12:42:57;;;;;;;24.60;12.47;;;23.90;46.20;;;;;;5051746;28;20447;-70
2022/03/25 12:45:30;;;;;;;21.57;10.50;;;23.90;45.10;;;;;;5054433;28;20755;-70